Time;durP1;ratioP1;P1;durP2;ratioP2;P2;SDS_P1;SDS_P2;PMS_P1;PMS_P2;Temp;Humidity;BMP_temperature;BMP_pressure;BME280_temperature;BME280_humidity;BME280_pressure;Samples;Min_cycle;Max_cycle;Signal;HPM_P1;HPM_P2
2022/10/02 00:01:18;;;;;;;32.00;5.30;;;12.80;99.90;;;;;;4958814;28;20013;-62
2022/10/02 00:03:44;;;;;;;24.35;4.45;;;12.90;99.90;;;;;;4950771;28;20498;-62
2022/10/02 00:06:22;;;;;;;32.30;5.95;;;12.90;99.90;;;;;;4951732;28;20150;-62
2022/10/02 00:08:52;;;;;;;34.00;4.65;;;12.80;99.90;;;;;;4954758;28;20045;-62
2022/10/02 00:11:33;;;;;;;33.33;5.93;;;12.90;99.90;;;;;;4956999;28;20066;-61
2022/10/02 00:14:02;;;;;;;26.88;4.72;;;12.90;99.90;;;;;;4955479;28;20114;-62
2022/10/02 00:16:33;;;;;;;32.47;5.32;;;12.80;99.90;;;;;;4947395;28;20058;-62
2022/10/02 00:18:59;;;;;;;28.15;4.88;;;12.90;99.90;;;;;;4957465;28;20188;-62
2022/10/02 00:22:00;;;;;;;27.38;4.95;;;12.90;99.90;;;;;;4951702;28;20364;-62
2022/10/02 00:24:32;;;;;;;31.92;4.88;;;13.00;99.90;;;;;;4957346;28;20113;-62
2022/10/02 00:27:34;;;;;;;30.70;4.83;;;13.00;99.90;;;;;;4951584;28;20363;-62
2022/10/02 00:30:02;;;;;;;31.55;5.05;;;13.00;99.90;;;;;;4952693;28;20034;-62
2022/10/02 00:32:45;;;;;;;39.05;5.90;;;13.00;99.90;;;;;;4956470;28;20035;-62
2022/10/02 00:35:33;;;;;;;38.25;5.13;;;13.00;99.90;;;;;;4958061;28;20046;-62
2022/10/02 00:38:17;;;;;;;34.53;5.65;;;13.10;99.90;;;;;;4945901;28;20554;-62
2022/10/02 00:41:05;;;;;;;34.08;5.07;;;13.10;99.90;;;;;;4959082;28;20411;-62
2022/10/02 00:43:49;;;;;;;34.92;5.07;;;13.10;99.90;;;;;;4959170;28;20053;-62
2022/10/02 00:46:28;;;;;;;33.40;5.47;;;13.10;99.90;;;;;;4959937;28;20089;-61
2022/10/02 00:49:18;;;;;;;35.42;4.93;;;13.20;99.90;;;;;;4943884;28;20039;-62
2022/10/02 00:51:48;;;;;;;29.80;5.30;;;13.10;99.90;;;;;;4953275;28;20057;-62
2022/10/02 00:54:27;;;;;;;27.98;4.45;;;13.10;99.90;;;;;;4955991;28;20422;-62
2022/10/02 00:57:10;;;;;;;35.83;5.53;;;13.10;99.90;;;;;;4952417;28;20055;-63
2022/10/02 01:00:04;;;;;;;41.72;6.28;;;13.20;99.90;;;;;;4950052;28;20620;-63
2022/10/02 01:02:30;;;;;;;37.90;5.53;;;13.30;99.90;;;;;;4956143;28;20450;-62
2022/10/02 01:05:01;;;;;;;36.78;5.20;;;13.30;99.90;;;;;;4954655;28;20027;-62
2022/10/02 01:07:27;;;;;;;41.47;5.57;;;13.30;99.90;;;;;;4956439;28;20619;-62
2022/10/02 01:09:53;;;;;;;39.38;6.18;;;13.30;99.90;;;;;;4948710;28;20047;-62
2022/10/02 01:12:18;;;;;;;32.33;5.32;;;13.30;99.90;;;;;;4952004;28;20107;-62
2022/10/02 01:14:44;;;;;;;33.33;5.15;;;13.40;99.90;;;;;;4950448;28;20038;-62
2022/10/02 01:17:33;;;;;;;39.38;6.05;;;13.40;99.90;;;;;;4955457;28;20043;-62
2022/10/02 01:20:04;;;;;;;28.65;5.38;;;13.40;99.90;;;;;;4955500;28;20707;-62
2022/10/02 01:22:45;;;;;;;37.80;6.13;;;13.40;99.90;;;;;;4954090;28;20047;-62
2022/10/02 01:25:11;;;;;;;36.50;5.88;;;13.40;99.90;;;;;;4954072;28;20039;-62
2022/10/02 01:27:37;;;;;;;37.78;6.28;;;13.40;99.90;;;;;;4962859;28;20050;-62
2022/10/02 01:30:10;;;;;;;32.95;5.45;;;13.50;99.90;;;;;;4959704;28;20118;-62
2022/10/02 01:32:41;;;;;;;38.88;6.28;;;13.50;99.90;;;;;;4953983;28;20038;-62
2022/10/02 01:35:07;;;;;;;37.17;5.90;;;13.50;99.90;;;;;;4960367;28;20055;-62
2022/10/02 01:37:37;;;;;;;27.77;4.82;;;13.50;99.90;;;;;;4959251;28;20167;-62
2022/10/02 01:40:08;;;;;;;38.25;5.88;;;13.50;99.90;;;;;;4956732;28;20411;-62
2022/10/02 01:42:38;;;;;;;21.55;4.30;;;13.50;99.90;;;;;;4950403;28;20047;-63
2022/10/02 01:45:05;;;;;;;34.95;5.47;;;13.50;99.90;;;;;;4957224;28;20050;-64
2022/10/02 01:47:49;;;;;;;25.98;5.57;;;13.40;99.90;;;;;;4960765;28;20082;-62
2022/10/02 01:50:18;;;;;;;33.65;4.93;;;13.50;99.90;;;;;;4960643;28;20034;-63
2022/10/02 01:53:12;;;;;;;41.38;6.32;;;13.50;99.90;;;;;;4958772;28;20118;-62
2022/10/02 01:55:48;;;;;;;30.33;5.47;;;13.60;99.90;;;;;;4951381;28;20050;-62
2022/10/02 01:58:24;;;;;;;35.97;6.28;;;13.60;99.90;;;;;;4957942;28;20398;-62
2022/10/02 02:01:04;;;;;;;31.38;5.15;;;13.70;99.90;;;;;;4953317;28;20035;-62
2022/10/02 02:03:45;;;;;;;36.10;6.15;;;13.60;99.90;;;;;;4957348;28;20617;-63
2022/10/02 02:06:32;;;;;;;35.80;5.82;;;13.30;99.90;;;;;;4951587;28;20382;-62
2022/10/02 02:09:22;;;;;;;33.67;5.78;;;13.60;99.90;;;;;;4959849;28;20097;-63
2022/10/02 02:12:14;;;;;;;38.72;6.63;;;13.70;99.90;;;;;;4958066;28;20035;-62
2022/10/02 02:15:05;;;;;;;39.10;5.90;;;13.70;99.90;;;;;;4957384;28;20439;-62
2022/10/02 02:17:39;;;;;;;41.15;6.30;;;13.60;99.90;;;;;;4952665;28;20046;-62
2022/10/02 02:20:09;;;;;;;54.42;7.68;;;13.60;99.90;;;;;;4960392;28;20083;-62
2022/10/02 02:22:45;;;;;;;46.13;6.15;;;13.60;99.90;;;;;;4957679;28;20352;-62
2022/10/02 02:25:25;;;;;;;53.35;7.18;;;13.70;99.90;;;;;;4953002;28;20031;-63
2022/10/02 02:27:55;;;;;;;37.53;5.85;;;13.70;99.90;;;;;;4946385;28;20035;-62
2022/10/02 02:30:21;;;;;;;36.67;6.00;;;13.80;99.90;;;;;;4956273;28;20058;-62
2022/10/02 02:32:51;;;;;;;37.03;6.93;;;13.70;99.90;;;;;;4958892;28;20506;-63
2022/10/02 02:35:26;;;;;;;39.17;6.03;;;13.80;99.90;;;;;;4955954;28;20047;-61
2022/10/02 02:38:00;;;;;;;38.72;6.60;;;13.70;99.90;;;;;;4950329;28;20034;-62
2022/10/02 02:40:30;;;;;;;40.47;6.07;;;13.60;99.90;;;;;;4956201;28;20114;-62
2022/10/02 02:43:09;;;;;;;36.85;6.20;;;13.70;99.90;;;;;;4951490;28;20491;-62
2022/10/02 02:45:40;;;;;;;38.38;5.88;;;13.70;99.90;;;;;;4954514;28;20031;-61
2022/10/02 02:48:16;;;;;;;40.30;6.18;;;13.70;99.90;;;;;;4951696;28;20046;-63
2022/10/02 02:50:53;;;;;;;38.53;6.47;;;13.70;99.90;;;;;;4954652;28;20391;-61
2022/10/02 02:53:34;;;;;;;43.33;6.40;;;13.70;99.90;;;;;;4958171;28;20380;-63
2022/10/02 02:56:06;;;;;;;40.80;6.93;;;13.80;99.90;;;;;;4948882;28;20086;-62
2022/10/02 02:58:35;;;;;;;36.22;6.00;;;13.80;99.90;;;;;;4954145;28;20051;-62
2022/10/02 03:01:01;;;;;;;35.35;6.22;;;13.80;99.90;;;;;;4955592;28;20042;-63
2022/10/02 03:03:26;;;;;;;36.72;5.63;;;13.80;99.90;;;;;;4957348;28;20046;-62
2022/10/02 03:06:04;;;;;;;32.67;5.68;;;13.80;99.90;;;;;;4960169;28;20414;-62
2022/10/02 03:08:35;;;;;;;43.63;7.10;;;13.80;99.90;;;;;;4957272;28;20035;-63
2022/10/02 03:11:22;;;;;;;30.02;5.47;;;13.80;99.90;;;;;;4949757;28;20103;-62
2022/10/02 03:14:00;;;;;;;38.65;6.22;;;13.80;99.90;;;;;;4952811;28;20031;-63
2022/10/02 03:16:56;;;;;;;30.42;5.70;;;13.80;99.90;;;;;;4955639;28;20407;-63
2022/10/02 03:19:43;;;;;;;44.92;6.45;;;13.80;99.90;;;;;;4956893;28;20039;-63
2022/10/02 03:22:18;;;;;;;44.17;6.93;;;13.90;99.90;;;;;;4950816;28;20047;-62
2022/10/02 03:25:21;;;;;;;39.90;5.85;;;14.00;99.90;;;;;;4951045;28;20126;-63
2022/10/02 03:28:17;;;;;;;41.13;6.38;;;13.90;99.90;;;;;;4954595;28;20404;-63
2022/10/02 03:30:44;;;;;;;39.28;6.95;;;13.80;99.90;;;;;;4948999;28;20034;-62
2022/10/02 03:33:12;;;;;;;49.35;6.82;;;13.90;99.90;;;;;;4952309;28;20047;-62
2022/10/02 03:35:39;;;;;;;45.90;6.47;;;13.90;99.90;;;;;;4957122;28;20027;-62
2022/10/02 03:38:08;;;;;;;43.17;6.88;;;14.00;99.90;;;;;;4951889;28;20363;-64
2022/10/02 03:40:34;;;;;;;48.25;6.97;;;14.00;99.90;;;;;;4951445;28;20039;-63
2022/10/02 03:43:00;;;;;;;48.50;7.50;;;14.00;99.90;;;;;;4950541;28;20041;-63
2022/10/02 03:45:27;;;;;;;52.10;6.65;;;13.90;99.90;;;;;;4956846;28;20485;-63
2022/10/02 03:47:52;;;;;;;31.60;6.45;;;13.80;99.90;;;;;;4958361;28;20039;-64
2022/10/02 03:50:18;;;;;;;48.67;7.15;;;13.90;99.90;;;;;;4960928;28;20410;-65
2022/10/02 03:52:44;;;;;;;35.83;6.97;;;14.00;99.90;;;;;;4952251;28;20038;-64
2022/10/02 03:55:35;;;;;;;38.20;6.53;;;14.00;99.90;;;;;;4953617;28;20612;-64
2022/10/02 03:58:10;;;;;;;33.40;6.32;;;14.00;99.90;;;;;;4955212;28;20031;-63
2022/10/02 04:00:54;;;;;;;33.22;7.78;;;13.90;99.90;;;;;;4956148;28;20043;-64
2022/10/02 04:03:32;;;;;;;21.75;4.68;;;14.00;99.90;;;;;;4961174;28;20446;-63
2022/10/02 04:06:20;;;;;;;34.58;6.88;;;14.00;99.90;;;;;;4951233;28;20031;-63
2022/10/02 04:08:55;;;;;;;27.00;5.90;;;14.00;99.90;;;;;;4949384;28;20544;-63
2022/10/02 04:11:56;;;;;;;31.35;6.15;;;14.00;99.90;;;;;;4955518;28;21954;-63
2022/10/02 04:14:24;;;;;;;27.15;5.95;;;14.00;99.90;;;;;;4942470;28;20442;-63
2022/10/02 04:17:00;;;;;;;31.35;6.07;;;13.90;99.90;;;;;;4955799;28;20130;-63
2022/10/02 04:19:44;;;;;;;29.08;6.60;;;14.00;99.90;;;;;;4949370;28;20139;-64
2022/10/02 04:22:37;;;;;;;25.83;6.18;;;14.10;99.90;;;;;;4955596;28;20035;-64
2022/10/02 04:25:19;;;;;;;29.42;6.35;;;14.10;99.90;;;;;;4967211;28;20409;-63
2022/10/02 04:27:58;;;;;;;19.75;5.57;;;13.90;99.90;;;;;;4954650;28;20074;-64
2022/10/02 04:30:24;;;;;;;21.42;4.53;;;13.90;99.90;;;;;;4951312;28;20459;-63
2022/10/02 04:32:50;;;;;;;21.30;4.32;;;13.80;99.90;;;;;;4951841;28;20145;-63
2022/10/02 04:35:34;;;;;;;16.95;4.30;;;13.90;99.90;;;;;;4957802;28;20097;-63
2022/10/02 04:38:18;;;;;;;21.33;3.97;;;13.80;99.90;;;;;;4953392;28;20384;-64
2022/10/02 04:41:18;;;;;;;18.02;4.53;;;13.90;99.90;;;;;;4949445;28;20057;-63
2022/10/02 04:44:13;;;;;;;18.63;4.07;;;14.00;99.90;;;;;;4954747;28;20367;-63
2022/10/02 04:47:22;;;;;;;20.88;4.63;;;14.00;99.90;;;;;;4952506;28;20097;-63
2022/10/02 04:50:08;;;;;;;23.75;5.13;;;14.10;99.90;;;;;;4948001;28;20315;-63
2022/10/02 04:52:52;;;;;;;18.38;5.10;;;14.00;99.90;;;;;;4955222;28;20039;-63
2022/10/02 04:55:50;;;;;;;24.05;5.10;;;14.10;99.90;;;;;;4954953;28;20035;-63
2022/10/02 04:58:32;;;;;;;23.95;4.68;;;14.00;99.90;;;;;;4949772;28;20031;-63
2022/10/02 05:01:00;;;;;;;17.45;5.70;;;14.10;99.90;;;;;;4959708;28;20038;-62
2022/10/02 05:04:14;;;;;;;21.10;5.72;;;14.10;99.90;;;;;;4956629;28;20113;-62
2022/10/02 05:07:07;;;;;;;30.05;5.97;;;14.10;99.90;;;;;;4937278;28;20047;-62
2022/10/02 05:09:43;;;;;;;25.23;5.82;;;14.10;99.90;;;;;;4957019;28;20035;-64
2022/10/02 05:12:29;;;;;;;26.75;5.40;;;14.20;99.90;;;;;;4946684;28;20437;-64
2022/10/02 05:15:12;;;;;;;19.27;5.15;;;14.10;99.90;;;;;;4953099;28;20037;-63
2022/10/02 05:18:05;;;;;;;21.42;5.53;;;14.20;99.90;;;;;;4954895;28;20576;-63
2022/10/02 05:20:58;;;;;;;20.80;5.75;;;14.20;99.90;;;;;;4941856;28;20554;-64
2022/10/02 05:23:52;;;;;;;21.52;5.00;;;14.10;99.90;;;;;;4945576;28;20039;-63
2022/10/02 05:26:41;;;;;;;11.80;4.35;;;14.00;99.90;;;;;;4955095;28;20120;-63
2022/10/02 05:29:16;;;;;;;15.25;4.82;;;14.10;99.90;;;;;;4954387;28;20411;-63
2022/10/02 05:32:01;;;;;;;14.35;4.75;;;14.00;99.90;;;;;;4952109;28;20039;-63
2022/10/02 05:34:44;;;;;;;20.77;5.25;;;14.00;99.90;;;;;;4944809;28;20506;-63
2022/10/02 05:37:18;;;;;;;20.75;5.90;;;14.10;99.90;;;;;;4946644;28;20139;-63
2022/10/02 05:40:15;;;;;;;18.98;5.22;;;14.10;99.90;;;;;;4952261;28;20086;-63
2022/10/02 05:43:03;;;;;;;19.00;6.13;;;14.00;99.90;;;;;;4941953;28;20546;-63
2022/10/02 05:45:38;;;;;;;21.73;6.18;;;14.10;99.90;;;;;;4950035;28;20043;-62
2022/10/02 05:48:31;;;;;;;20.58;7.00;;;14.10;99.90;;;;;;4954282;28;20039;-63
2022/10/02 05:51:07;;;;;;;19.33;6.85;;;14.10;99.90;;;;;;4950752;28;20542;-63
2022/10/02 05:53:39;;;;;;;21.58;6.07;;;14.10;99.90;;;;;;4948114;28;20039;-63
2022/10/02 05:56:21;;;;;;;13.75;6.10;;;14.10;99.90;;;;;;4943153;28;20035;-63
2022/10/02 05:59:05;;;;;;;20.17;6.72;;;14.10;99.90;;;;;;4951535;28;20110;-64
2022/10/02 06:01:40;;;;;;;24.58;7.15;;;14.10;99.90;;;;;;4956394;28;20402;-63
2022/10/02 06:04:13;;;;;;;22.63;6.80;;;14.10;99.90;;;;;;4952243;28;20118;-64
2022/10/02 06:06:47;;;;;;;21.48;6.78;;;14.10;99.90;;;;;;4943993;28;20037;-63
2022/10/02 06:09:24;;;;;;;29.65;8.57;;;14.10;99.90;;;;;;4958580;28;20045;-64
2022/10/02 06:12:08;;;;;;;26.38;8.13;;;14.20;99.90;;;;;;4956885;28;20101;-64
2022/10/02 06:14:49;;;;;;;23.38;8.13;;;14.20;99.90;;;;;;4957306;28;20031;-64
2022/10/02 06:17:44;;;;;;;25.73;8.27;;;14.20;99.90;;;;;;4947044;28;20073;-64
2022/10/02 06:20:12;;;;;;;28.27;9.35;;;14.20;99.90;;;;;;4955407;28;20050;-64
2022/10/02 06:22:48;;;;;;;30.27;10.00;;;14.20;99.90;;;;;;4959973;28;20031;-64
2022/10/02 06:25:26;;;;;;;28.77;9.80;;;14.20;99.90;;;;;;4958759;28;20107;-63
2022/10/02 06:28:07;;;;;;;38.97;10.60;;;14.20;99.90;;;;;;4948338;28;20050;-63
2022/10/02 06:30:37;;;;;;;34.83;10.80;;;14.20;99.90;;;;;;4959560;28;20378;-63
2022/10/02 06:33:35;;;;;;;31.10;10.50;;;14.20;99.90;;;;;;4958265;28;20740;-63
2022/10/02 06:36:12;;;;;;;29.70;10.55;;;14.30;99.90;;;;;;4912641;28;20110;-64
2022/10/02 06:39:09;;;;;;;35.58;12.13;;;14.30;99.90;;;;;;4950717;28;20111;-64
2022/10/02 06:41:56;;;;;;;29.58;10.68;;;14.30;99.90;;;;;;4955365;28;20177;-64
2022/10/02 06:44:40;;;;;;;31.92;10.73;;;14.30;99.90;;;;;;4955372;28;20049;-64
2022/10/02 06:47:27;;;;;;;30.73;10.77;;;14.30;99.90;;;;;;4957000;28;20035;-64
2022/10/02 06:50:01;;;;;;;35.40;11.15;;;14.40;99.90;;;;;;4948412;28;20325;-64
2022/10/02 06:52:57;;;;;;;35.47;11.27;;;14.40;99.90;;;;;;4958037;28;20947;-64
2022/10/02 06:55:22;;;;;;;33.15;11.73;;;14.50;99.90;;;;;;4951848;28;20035;-64
2022/10/02 06:58:18;;;;;;;28.95;11.45;;;14.50;99.90;;;;;;4953652;28;20110;-63
2022/10/02 07:00:59;;;;;;;39.92;12.82;;;14.60;99.90;;;;;;4956791;28;20038;-63
2022/10/02 07:03:33;;;;;;;30.35;11.73;;;14.60;99.90;;;;;;4951762;28;20058;-64
2022/10/02 07:06:54;;;;;;;32.33;12.00;;;14.60;99.90;;;;;;4956934;28;20403;-64
2022/10/02 07:09:39;;;;;;;34.63;12.02;;;14.70;99.90;;;;;;4899698;28;20125;-64
2022/10/02 07:12:19;;;;;;;33.70;12.07;;;14.70;99.90;;;;;;4949372;28;20430;-64
2022/10/02 07:14:56;;;;;;;33.38;12.02;;;14.70;99.90;;;;;;4956611;28;20406;-64
2022/10/02 07:17:44;;;;;;;33.42;11.63;;;14.80;99.90;;;;;;4956509;28;20055;-63
2022/10/02 07:20:31;;;;;;;35.13;13.15;;;14.80;99.90;;;;;;4953997;28;20047;-63
2022/10/02 07:23:12;;;;;;;34.95;13.02;;;14.90;99.90;;;;;;4949892;28;20045;-63
2022/10/02 07:26:10;;;;;;;34.58;12.90;;;14.90;99.90;;;;;;4954628;28;20035;-63
2022/10/02 07:28:42;;;;;;;43.67;13.63;;;14.90;99.90;;;;;;4952693;28;20095;-63
2022/10/02 07:31:30;;;;;;;38.00;13.23;;;15.00;99.90;;;;;;4956686;28;20072;-63
2022/10/02 07:34:05;;;;;;;35.58;11.52;;;15.10;99.90;;;;;;4955613;28;20062;-63
2022/10/02 07:36:45;;;;;;;32.53;11.85;;;15.00;99.90;;;;;;4949452;28;20439;-64
2022/10/02 07:39:33;;;;;;;33.00;11.88;;;15.00;99.90;;;;;;4957013;28;20035;-63
2022/10/02 07:42:32;;;;;;;30.70;11.75;;;15.00;99.90;;;;;;4961336;28;20588;-62
2022/10/02 07:45:20;;;;;;;36.72;12.18;;;15.00;99.90;;;;;;4933157;28;20517;-63
2022/10/02 07:48:11;;;;;;;30.10;11.15;;;15.00;99.90;;;;;;4953434;28;20062;-63
2022/10/02 07:50:48;;;;;;;33.60;11.35;;;15.10;99.90;;;;;;4956028;28;20138;-63
2022/10/02 07:53:39;;;;;;;32.53;12.05;;;15.20;99.90;;;;;;4950022;28;20023;-61
2022/10/02 07:56:18;;;;;;;30.10;11.95;;;15.30;99.90;;;;;;4948696;28;20134;-61
2022/10/02 07:58:51;;;;;;;34.38;12.43;;;15.10;99.90;;;;;;4949508;28;20423;-61
2022/10/02 08:01:24;;;;;;;30.33;12.82;;;15.20;99.90;;;;;;4950376;28;20478;-61
2022/10/02 08:04:01;;;;;;;;;;;15.10;99.90;;;;;;4952466;28;20513;-61
2022/10/02 08:06:27;;;;;;;29.65;12.02;;;15.10;99.90;;;;;;4954203;28;19914;-61
2022/10/02 08:09:00;;;;;;;34.72;12.82;;;15.20;99.90;;;;;;4951226;28;20043;-61
2022/10/02 08:11:36;;;;;;;39.00;13.50;;;15.40;99.90;;;;;;4951280;28;20054;-61
2022/10/02 08:14:17;;;;;;;35.20;14.35;;;15.30;99.90;;;;;;4953583;28;20706;-58
2022/10/02 08:16:49;;;;;;;33.75;13.45;;;15.30;99.90;;;;;;4957952;28;20834;-61
2022/10/02 08:19:26;;;;;;;37.08;13.73;;;15.20;99.90;;;;;;4955224;28;20547;-61
2022/10/02 08:21:59;;;;;;;36.70;12.32;;;15.10;99.90;;;;;;4949867;28;20405;-61
2022/10/02 08:24:37;;;;;;;26.75;11.05;;;15.10;99.90;;;;;;4953188;28;20743;-60
2022/10/02 08:27:12;;;;;;;30.90;12.10;;;15.10;99.90;;;;;;4953563;28;20158;-61
2022/10/02 08:29:42;;;;;;;30.35;11.38;;;15.20;99.90;;;;;;4953658;28;20614;-61
2022/10/02 08:32:11;;;;;;;39.17;11.25;;;14.60;99.90;;;;;;4955404;28;20041;-60
2022/10/02 08:34:37;;;;;;;34.33;12.10;;;15.30;99.90;;;;;;4956899;28;20051;-61
2022/10/02 08:37:12;;;;;;;32.22;11.68;;;15.90;99.90;;;;;;4952245;28;20081;-61
2022/10/02 08:40:19;;;;;;;26.52;10.95;;;15.30;99.90;;;;;;4954309;28;20090;-61
2022/10/02 08:42:56;;;;;;;24.33;10.60;;;15.30;99.90;;;;;;4877284;29;20152;-61
2022/10/02 08:45:55;;;;;;;22.13;10.55;;;15.40;99.90;;;;;;4947627;28;20562;-61
2022/10/02 08:49:12;;;;;;;25.13;10.43;;;15.70;99.90;;;;;;4955526;28;20259;-62
2022/10/02 08:52:05;;;;;;;22.27;9.65;;;15.60;99.90;;;;;;4947288;28;20030;-62
2022/10/02 08:54:49;;;;;;;;;;;15.40;99.90;;;;;;4948315;28;20126;-60
2022/10/02 08:57:18;;;;;;;23.98;9.88;;;15.50;99.90;;;;;;4952869;28;19922;-61
2022/10/02 09:00:08;;;;;;;24.58;10.55;;;15.50;99.90;;;;;;4951251;28;20102;-61
2022/10/02 09:02:56;;;;;;;23.98;9.93;;;15.60;99.90;;;;;;4945753;28;20487;-61
2022/10/02 09:05:54;;;;;;;22.75;10.02;;;15.70;99.90;;;;;;4952466;28;20047;-61
2022/10/02 09:08:41;;;;;;;22.38;8.55;;;15.60;99.90;;;;;;4950349;28;20113;-61
2022/10/02 09:11:36;;;;;;;24.02;8.50;;;15.70;99.90;;;;;;4954225;28;20507;-60
2022/10/02 09:14:27;;;;;;;17.83;7.20;;;15.80;99.90;;;;;;4953024;28;20031;-61
2022/10/02 09:17:12;;;;;;;14.48;6.50;;;15.80;99.90;;;;;;4953346;28;20114;-60
2022/10/02 09:19:48;;;;;;;18.27;6.75;;;15.80;99.90;;;;;;4955650;28;20023;-61
2022/10/02 09:22:26;;;;;;;14.43;5.97;;;15.80;99.90;;;;;;4953555;28;20031;-61
2022/10/02 09:25:12;;;;;;;13.27;5.75;;;15.80;99.90;;;;;;4945560;28;20403;-61
2022/10/02 09:28:18;;;;;;;13.13;5.57;;;15.90;99.90;;;;;;4954846;28;20042;-61
2022/10/02 09:31:02;;;;;;;12.95;5.45;;;16.00;99.90;;;;;;4954339;28;20035;-61
2022/10/02 09:33:47;;;;;;;15.63;6.03;;;15.90;99.90;;;;;;4958078;28;20043;-61
2022/10/02 09:36:50;;;;;;;10.70;5.25;;;16.00;99.90;;;;;;4950007;28;20221;-61
2022/10/02 09:39:53;;;;;;;17.30;6.43;;;16.00;99.90;;;;;;4949677;28;20166;-61
2022/10/02 09:42:19;;;;;;;13.77;6.10;;;15.90;99.90;;;;;;4954344;28;20042;-61
2022/10/02 09:45:03;;;;;;;14.65;6.25;;;16.00;99.90;;;;;;4953367;28;20042;-60
2022/10/02 09:48:03;;;;;;;15.38;6.45;;;16.00;99.90;;;;;;4958386;28;20121;-61
2022/10/02 09:51:04;;;;;;;18.73;7.28;;;16.10;99.90;;;;;;4952999;28;20095;-61
2022/10/02 09:53:57;;;;;;;20.52;7.38;;;16.00;99.90;;;;;;4960140;28;20031;-60
2022/10/02 09:56:51;;;;;;;18.65;7.03;;;16.20;99.90;;;;;;4954593;28;20105;-60
2022/10/02 09:59:25;;;;;;;;;;;16.20;99.90;;;;;;4952223;28;20468;-61
2022/10/02 10:02:28;;;;;;;17.70;7.43;;;16.30;99.90;;;;;;4957781;28;20073;-60
2022/10/02 10:05:07;;;;;;;13.10;6.93;;;;;;;;;;4950944;28;20035;-62
2022/10/02 10:08:11;;;;;;;20.77;7.82;;;16.00;99.90;;;;;;4958160;28;20158;-60
2022/10/02 10:11:01;;;;;;;21.23;7.10;;;16.30;99.90;;;;;;4957884;28;20031;-61
2022/10/02 10:13:31;;;;;;;18.10;6.15;;;16.40;99.90;;;;;;4958032;28;20038;-62
2022/10/02 10:15:56;;;;;;;17.50;7.05;;;16.40;99.90;;;;;;4958410;28;20051;-61
2022/10/02 10:18:55;;;;;;;15.35;6.57;;;16.40;99.90;;;;;;4951383;28;20771;-61
2022/10/02 10:21:44;;;;;;;17.50;6.05;;;16.40;99.90;;;;;;4952963;28;20049;-61
2022/10/02 10:24:44;;;;;;;21.10;7.03;;;16.50;99.90;;;;;;4956333;28;20035;-61
2022/10/02 10:27:28;;;;;;;14.43;5.93;;;16.50;99.90;;;;;;4955318;28;20026;-61
2022/10/02 10:30:23;;;;;;;14.40;5.47;;;16.50;99.90;;;;;;4953414;28;20386;-61
2022/10/02 10:33:16;;;;;;;16.40;5.75;;;16.50;99.90;;;;;;4956536;28;20789;-61
2022/10/02 10:35:52;;;;;;;14.98;5.97;;;16.60;99.90;;;;;;4955149;28;20673;-61
2022/10/02 10:38:40;;;;;;;15.93;5.18;;;16.40;99.90;;;;;;4954690;28;20110;-61
2022/10/02 10:41:09;;;;;;;14.52;4.72;;;16.30;99.90;;;;;;4954592;28;20043;-61
2022/10/02 10:44:02;;;;;;;12.23;4.90;;;16.40;99.90;;;;;;4954437;28;20244;-60
2022/10/02 10:46:43;;;;;;;21.07;5.27;;;16.60;99.90;;;;;;4959356;28;20099;-62
2022/10/02 10:49:29;;;;;;;16.17;5.28;;;16.60;99.90;;;;;;4955610;28;20503;-61
2022/10/02 10:52:12;;;;;;;16.42;4.78;;;16.60;99.90;;;;;;4951997;28;20043;-61
2022/10/02 10:54:59;;;;;;;21.48;5.18;;;16.60;99.90;;;;;;4951293;28;20549;-61
2022/10/02 10:57:33;;;;;;;11.75;4.38;;;16.50;99.90;;;;;;4954537;28;20073;-61
2022/10/02 11:00:02;;;;;;;13.55;5.05;;;16.60;99.90;;;;;;4953546;28;20073;-61
2022/10/02 11:02:53;;;;;;;14.38;4.97;;;16.70;99.90;;;;;;4962246;28;20122;-61
2022/10/02 11:05:52;;;;;;;15.20;4.40;;;16.80;99.90;;;;;;4946464;28;20718;-61
2022/10/02 11:08:35;;;;;;;14.55;4.18;;;16.70;99.90;;;;;;4957890;28;20107;-61
2022/10/02 11:11:31;;;;;;;12.30;3.83;;;16.70;99.90;;;;;;4956704;28;20035;-61
2022/10/02 11:14:04;;;;;;;16.55;4.60;;;16.70;99.90;;;;;;4953495;28;20118;-61
2022/10/02 11:17:07;;;;;;;9.27;3.95;;;16.70;99.90;;;;;;4948180;28;20035;-61
2022/10/02 11:20:10;;;;;;;12.48;4.25;;;16.70;99.90;;;;;;4958070;28;20816;-61
2022/10/02 11:22:36;;;;;;;17.85;3.97;;;16.70;99.90;;;;;;4950877;28;20107;-61
2022/10/02 11:25:38;;;;;;;12.27;3.20;;;16.80;99.90;;;;;;4949804;28;20055;-60
2022/10/02 11:28:34;;;;;;;12.82;3.60;;;16.70;99.90;;;;;;4954153;28;20039;-60
2022/10/02 11:31:28;;;;;;;17.40;9.88;;;16.80;99.90;;;;;;4951509;28;20043;-61
2022/10/02 11:34:23;;;;;;;12.60;5.05;;;16.90;99.90;;;;;;4953881;28;20483;-60
2022/10/02 11:37:06;;;;;;;11.85;3.38;;;17.00;99.90;;;;;;4949268;28;20574;-60
2022/10/02 11:39:57;;;;;;;8.20;3.35;;;17.10;99.90;;;;;;4956904;28;20026;-60
2022/10/02 11:42:55;;;;;;;14.45;3.60;;;17.00;99.90;;;;;;4953592;28;20031;-61
2022/10/02 11:46:02;;;;;;;13.48;3.78;;;17.20;99.90;;;;;;4955617;28;20023;-63
2022/10/02 11:49:19;;;;;;;16.60;3.92;;;17.30;99.90;;;;;;4944254;28;20489;-60
2022/10/02 11:52:29;;;;;;;18.27;4.35;;;17.30;99.90;;;;;;4930879;28;20046;-60
2022/10/02 11:55:10;;;;;;;15.35;4.53;;;17.30;99.90;;;;;;4951698;28;20042;-61
2022/10/02 11:58:12;;;;;;;12.38;3.53;;;17.20;99.90;;;;;;4951575;28;20031;-61
2022/10/02 12:01:07;;;;;;;10.82;3.03;;;17.40;99.90;;;;;;4953622;28;20050;-60
2022/10/02 12:03:51;;;;;;;11.68;3.53;;;17.40;99.90;;;;;;4954869;28;20134;-61
2022/10/02 12:06:37;;;;;;;12.98;3.47;;;17.40;99.90;;;;;;4955281;28;20058;-60
2022/10/02 12:09:24;;;;;;;15.77;3.30;;;17.50;99.90;;;;;;4947962;28;20039;-60
2022/10/02 12:12:08;;;;;;;13.75;3.10;;;17.60;99.90;;;;;;4949951;28;20046;-61
2022/10/02 12:14:54;;;;;;;15.60;3.53;;;17.70;99.90;;;;;;4953383;28;20039;-61
2022/10/02 12:17:32;;;;;;;14.05;2.95;;;17.70;99.90;;;;;;4949234;28;20231;-60
2022/10/02 12:27:08;;;;;;;12.35;3.00;;;17.70;99.90;;;;;;4955483;28;20050;-61
2022/10/02 12:29:48;;;;;;;13.77;3.15;;;17.60;99.90;;;;;;4949379;28;20054;-61
2022/10/02 12:32:41;;;;;;;11.35;2.63;;;17.50;99.90;;;;;;4955382;28;20773;-61
2022/10/02 12:35:32;;;;;;;10.32;2.83;;;17.50;99.90;;;;;;4954385;28;21136;-61
2022/10/02 12:38:18;;;;;;;10.45;2.78;;;17.50;99.90;;;;;;4949567;28;20690;-61
2022/10/02 12:40:56;;;;;;;16.83;5.30;;;17.50;99.90;;;;;;4953726;28;20510;-61
2022/10/02 12:43:58;;;;;;;14.13;3.67;;;17.50;99.90;;;;;;4956192;28;20116;-61
2022/10/02 12:46:49;;;;;;;10.10;2.55;;;17.50;99.90;;;;;;4953202;28;20177;-62
2022/10/02 12:49:40;;;;;;;9.50;3.33;;;17.60;99.90;;;;;;4946052;28;20779;-61
2022/10/02 12:52:49;;;;;;;10.15;2.75;;;17.70;99.90;;;;;;4949948;28;20031;-61
2022/10/02 12:55:37;;;;;;;11.63;2.70;;;17.70;99.90;;;;;;4952001;28;20403;-61
2022/10/02 12:58:41;;;;;;;13.95;3.20;;;17.60;99.90;;;;;;4952801;28;20030;-61
2022/10/02 13:01:21;;;;;;;13.15;3.45;;;17.70;99.90;;;;;;4953410;28;20039;-61
2022/10/02 13:04:23;;;;;;;10.93;3.25;;;17.70;99.90;;;;;;4955458;28;20537;-61
2022/10/02 13:07:18;;;;;;;17.50;3.67;;;17.70;99.90;;;;;;4949838;28;20028;-61
2022/10/02 13:10:07;;;;;;;12.18;3.83;;;17.70;99.90;;;;;;4950008;28;20034;-61
2022/10/02 13:13:12;;;;;;;10.27;3.03;;;17.60;99.90;;;;;;4949407;28;20118;-61
2022/10/02 13:15:57;;;;;;;11.50;3.58;;;17.40;99.90;;;;;;4958073;28;20174;-62
2022/10/02 13:18:51;;;;;;;13.18;3.40;;;17.40;99.90;;;;;;4957734;28;20106;-61
2022/10/02 13:21:38;;;;;;;16.20;3.60;;;17.30;99.90;;;;;;4952607;28;20035;-62
2022/10/02 13:24:28;;;;;;;12.07;3.58;;;17.40;99.90;;;;;;4955301;28;20723;-61
2022/10/02 13:27:17;;;;;;;13.65;3.28;;;17.40;99.90;;;;;;4962407;28;20126;-61
2022/10/02 13:30:14;;;;;;;15.70;3.58;;;17.30;99.90;;;;;;4957047;28;20042;-61
2022/10/02 13:33:10;;;;;;;11.05;3.38;;;17.30;99.90;;;;;;4950754;28;20518;-61
2022/10/02 13:35:50;;;;;;;14.93;3.05;;;17.30;99.90;;;;;;4957438;28;20110;-62
2022/10/02 13:38:41;;;;;;;13.80;3.42;;;17.20;99.90;;;;;;4957598;28;20023;-61
2022/10/02 13:41:34;;;;;;;12.63;3.08;;;17.20;99.90;;;;;;4955986;28;20493;-62
2022/10/02 13:44:13;;;;;;;15.80;3.30;;;17.20;99.90;;;;;;4956071;28;20031;-62
2022/10/02 13:46:46;;;;;;;15.38;3.45;;;17.10;99.90;;;;;;4962148;28;20775;-61
2022/10/02 13:49:20;;;;;;;10.23;2.97;;;17.10;99.90;;;;;;4959003;28;20039;-61
2022/10/02 13:51:58;;;;;;;12.02;3.15;;;17.20;99.90;;;;;;4957438;28;20086;-62
2022/10/02 13:54:40;;;;;;;16.15;2.92;;;17.10;99.90;;;;;;4950570;28;20622;-62
2022/10/02 13:57:38;;;;;;;14.70;2.85;;;17.00;99.90;;;;;;4956245;28;20035;-61
2022/10/02 14:00:09;;;;;;;14.43;2.92;;;17.00;99.90;;;;;;4954579;28;20867;-62
2022/10/02 14:02:43;;;;;;;14.88;3.22;;;16.80;99.90;;;;;;4960686;28;20097;-61